UPSVAC Airport Information Service

Memphis International Airport

ICAO: KMEM Country: United States
Latitude: 35.0424 Longitude: -89.9766
Latest Arrival : UPSJUMP (CYQR-KMEM) Latest Departure : UPS825 (KMEM-KMFE)


WX CaptureLIVE
Data provided by noaa.gov | Fetched at 10:58:37

METAR : KMEM 270954Z 07011KT 10SM SCT110 06/01 A3005 RMK AO2 SLP175 T00560011 $

TAF : KMEM 270900Z 2709/2812 04011KT P6SM BKN100 FM271300 02009KT P6SM BKN025 FM271400 36010KT P6SM VCSH OVC010 TEMPO 2716/2719 4SM -RASN OVC007 FM271900 33012G19KT P6SM OVC012 FM280300 01008KT P6SM BKN035


Runway Data for KMEM
Data provided by openaviationdata.com

Runway ID Mag Var Hdg Length Elevation Surface ILS Freq ILS Id ILS Slope
9 0 91° 8936 ft 288 ft Asphalt 109.5 IMEM 3
18L 0 178° 9015 ft 288 ft Concrete 111.15 IEXS 3
18R 0 178° 9335 ft 288 ft Concrete 109.9 IOOI 3
18C 0 178° 11138 ft 288 ft Concrete 111.95 ISDU 3
27 0 271° 8936 ft 288 ft Asphalt 108.7 IJIM 3
36L 0 358° 9335 ft 288 ft Concrete 108.9 IOHN 3
36R 0 358° 9015 ft 288 ft Concrete 111.35 IMYO 3
36C 0 358° 11138 ft 288 ft Concrete 110.5 ITSE 3

Memphis International Airport, United States
Use only for reference purposes



Not for navigational purposes.